Time;durP1;ratioP1;P1;durP2;ratioP2;P2;SDS_P1;SDS_P2;PMS_P1;PMS_P2;Temp;Humidity;BMP_temperature;BMP_pressure;BME280_temperature;BME280_humidity;BME280_pressure;Samples;Min_cycle;Max_cycle;Signal;HPM_P1;HPM_P2
2021/12/14 00:02:34;;;;;;;4.40;2.53;;;4.90;99.90;;;;;;5127804;27;20206;-56
2021/12/14 00:05:21;;;;;;;7.30;2.83;;;5.00;99.90;;;;;;5126821;27;20195;-58
2021/12/14 00:08:12;;;;;;;3.67;1.77;;;5.00;99.90;;;;;;5126131;27;20199;-58
2021/12/14 00:11:24;;;;;;;3.37;1.87;;;4.90;99.90;;;;;;5127619;27;20210;-57
2021/12/14 00:14:25;;;;;;;2.57;2.37;;;4.90;99.90;;;;;;5128093;27;20191;-58
2021/12/14 00:17:23;;;;;;;4.50;2.70;;;5.00;99.90;;;;;;5125913;27;20303;-58
2021/12/14 00:20:26;;;;;;;3.47;1.40;;;4.90;99.90;;;;;;5127031;27;20217;-55
2021/12/14 00:25:59;;;;;;;5.83;2.07;;;4.90;99.90;;;;;;5127436;27;20256;-61
2021/12/14 00:28:44;;;;;;;2.70;2.33;;;4.90;99.90;;;;;;5127152;27;20214;-57
2021/12/14 00:31:30;;;;;;;6.50;2.50;;;4.90;99.90;;;;;;5127005;27;20245;-59
2021/12/14 00:34:22;;;;;;;2.73;2.53;;;5.00;99.90;;;;;;5125945;27;20308;-63
2021/12/14 00:37:24;;;;;;;6.07;3.50;;;5.00;99.90;;;;;;5126665;27;20258;-57
2021/12/14 00:40:16;;;;;;;3.90;2.93;;;4.90;99.90;;;;;;5136227;27;20217;-56
2021/12/14 00:43:02;;;;;;;4.97;2.80;;;4.90;99.90;;;;;;5132593;27;20268;-57
2021/12/14 00:45:47;;;;;;;3.23;1.73;;;4.90;99.90;;;;;;5135368;27;20195;-58
2021/12/14 00:48:32;;;;;;;4.57;2.47;;;4.90;99.90;;;;;;5135837;27;20203;-57
2021/12/14 00:51:21;;;;;;;5.10;2.73;;;4.90;99.90;;;;;;5128271;27;20231;-54
2021/12/14 00:54:11;;;;;;;2.97;1.60;;;4.90;99.90;;;;;;5135297;27;20230;-56
2021/12/14 00:56:56;;;;;;;2.47;1.40;;;4.90;99.90;;;;;;5131493;27;20219;-58
2021/12/14 00:59:41;;;;;;;3.87;2.27;;;4.90;99.90;;;;;;5130789;27;20187;-54
2021/12/14 01:02:25;;;;;;;1.73;1.60;;;4.90;99.90;;;;;;5132993;27;20199;-55
2021/12/14 01:05:19;;;;;;;2.67;1.83;;;4.90;99.90;;;;;;5135432;27;20226;-61
2021/12/14 01:08:08;;;;;;;3.33;2.10;;;4.90;99.90;;;;;;5133580;27;20259;-55
2021/12/14 01:11:03;;;;;;;2.67;2.27;;;4.90;99.90;;;;;;5130499;27;20316;-63
2021/12/14 01:14:02;;;;;;;2.40;1.80;;;4.90;99.90;;;;;;5119775;27;20199;-61
2021/12/14 01:17:07;;;;;;;2.63;2.13;;;4.90;99.90;;;;;;5125095;27;20226;-55
2021/12/14 01:19:57;;;;;;;2.60;2.40;;;4.90;99.90;;;;;;5125859;27;20186;-54
2021/12/14 01:22:45;;;;;;;4.27;2.77;;;5.00;99.90;;;;;;5124900;27;20202;-58
2021/12/14 01:25:35;;;;;;;5.63;2.87;;;5.00;99.90;;;;;;5124029;27;20192;-58
2021/12/14 01:28:27;;;;;;;3.83;2.90;;;5.00;99.90;;;;;;5126277;27;20207;-56
2021/12/14 01:31:41;;;;;;;5.87;1.80;;;4.90;99.90;;;;;;5124435;27;20268;-58
2021/12/14 01:34:23;;;;;;;3.90;2.27;;;4.90;99.90;;;;;;5125327;27;20327;-56
2021/12/14 01:37:14;;;;;;;4.73;2.93;;;4.90;99.90;;;;;;5125448;27;20296;-61
2021/12/14 01:40:06;;;;;;;5.13;2.90;;;4.90;99.90;;;;;;5125054;27;20241;-55
2021/12/14 01:42:50;;;;;;;2.77;2.53;;;4.80;99.90;;;;;;5124119;27;20245;-59
2021/12/14 01:45:35;;;;;;;4.40;2.20;;;4.80;99.90;;;;;;5125387;27;20198;-54
2021/12/14 01:48:19;;;;;;;4.83;2.53;;;4.80;99.90;;;;;;5123763;27;20234;-57
2021/12/14 01:51:07;;;;;;;2.47;2.27;;;4.80;99.90;;;;;;5124239;27;20227;-56
2021/12/14 01:53:55;;;;;;;4.80;2.57;;;4.70;99.90;;;;;;5125084;27;20207;-61
2021/12/14 01:56:40;;;;;;;2.20;1.70;;;4.80;99.90;;;;;;5124129;27;20249;-59
2021/12/14 01:59:34;;;;;;;5.60;2.10;;;4.80;99.90;;;;;;5125837;27;20190;-58
2021/12/14 02:02:40;;;;;;;2.97;2.10;;;4.80;99.90;;;;;;5124637;27;20199;-58
2021/12/14 02:05:29;;;;;;;3.83;2.97;;;4.70;99.90;;;;;;5123729;27;20191;-60
2021/12/14 02:08:19;;;;;;;3.73;2.43;;;4.70;99.90;;;;;;5124348;27;20241;-61
2021/12/14 02:11:07;;;;;;;3.07;2.77;;;4.80;99.90;;;;;;5124683;27;20199;-59
2021/12/14 02:13:54;;;;;;;6.40;2.30;;;4.70;99.90;;;;;;5123637;27;20254;-56
2021/12/14 02:16:40;;;;;;;4.33;3.07;;;4.80;99.90;;;;;;5124906;27;20271;-52
2021/12/14 02:19:26;;;;;;;6.07;3.13;;;4.80;99.90;;;;;;5124088;27;20249;-56
2021/12/14 02:22:11;;;;;;;2.17;2.07;;;4.70;99.90;;;;;;5123495;27;20195;-56
2021/12/14 02:24:55;;;;;;;3.57;1.97;;;4.70;99.90;;;;;;5125625;27;20196;-61
2021/12/14 02:27:43;;;;;;;5.73;2.87;;;4.60;99.90;;;;;;5124836;27;20195;-59
2021/12/14 02:30:30;;;;;;;3.70;2.13;;;4.70;99.90;;;;;;5124656;27;20206;-59
2021/12/14 02:33:41;;;;;;;2.43;2.23;;;4.70;99.90;;;;;;5125223;27;20260;-55
2021/12/14 02:36:32;;;;;;;4.13;2.37;;;4.70;99.90;;;;;;5123964;27;20275;-55
2021/12/14 02:42:26;;;;;;;6.63;4.07;;;4.70;99.90;;;;;;5126148;27;20261;-63
2021/12/14 02:45:11;;;;;;;4.90;3.13;;;4.70;99.90;;;;;;5123980;27;20238;-55
2021/12/14 02:47:56;;;;;;;7.23;3.17;;;4.70;99.90;;;;;;5123346;27;20190;-56
2021/12/14 02:50:41;;;;;;;5.73;3.40;;;4.70;99.90;;;;;;5125140;27;20203;-62
2021/12/14 02:53:25;;;;;;;6.57;3.73;;;4.70;99.90;;;;;;5123471;27;20199;-59
2021/12/14 02:56:16;;;;;;;3.77;2.57;;;4.70;99.90;;;;;;5123241;27;20187;-54
2021/12/14 02:59:08;;;;;;;3.93;2.97;;;4.70;99.90;;;;;;5124363;28;20203;-58
2021/12/14 03:01:55;;;;;;;3.50;2.30;;;4.70;99.90;;;;;;5122958;28;20206;-59
2021/12/14 03:04:45;;;;;;;5.50;2.93;;;4.70;99.90;;;;;;5123340;28;20195;-58
2021/12/14 03:07:34;;;;;;;3.70;2.73;;;4.60;99.90;;;;;;5124442;28;20195;-54
2021/12/14 03:13:20;;;;;;;4.27;2.67;;;4.60;99.90;;;;;;5125493;28;20183;-57
2021/12/14 03:16:09;;;;;;;4.00;1.50;;;4.70;99.90;;;;;;5124027;28;20206;-58
2021/12/14 03:18:56;;;;;;;3.03;2.17;;;4.70;99.90;;;;;;5123466;27;20280;-57
2021/12/14 03:21:45;;;;;;;4.40;2.57;;;4.70;99.90;;;;;;5128665;27;20273;-56
2021/12/14 03:24:31;;;;;;;4.97;2.70;;;4.70;99.90;;;;;;5127698;27;20248;-59
2021/12/14 03:27:16;;;;;;;3.23;2.63;;;4.60;99.90;;;;;;5126886;27;20202;-60
2021/12/14 03:30:01;;;;;;;2.90;2.33;;;4.60;99.90;;;;;;5129499;27;20215;-57
2021/12/14 03:32:45;;;;;;;1.63;1.53;;;4.60;99.90;;;;;;5127193;27;20219;-57
2021/12/14 03:35:54;;;;;;;2.93;1.97;;;4.70;99.90;;;;;;5127618;27;20241;-63
2021/12/14 03:38:53;;;;;;;2.40;1.83;;;4.60;99.90;;;;;;5128815;27;20324;-53
2021/12/14 03:41:46;;;;;;;5.63;2.80;;;4.70;99.90;;;;;;5127012;27;20245;-56
2021/12/14 03:44:36;;;;;;;1.50;1.50;;;4.60;99.90;;;;;;5126833;27;20195;-61
2021/12/14 03:47:31;;;;;;;2.80;1.63;;;4.60;99.90;;;;;;5128182;27;20271;-59
2021/12/14 03:50:41;;;;;;;6.17;1.80;;;4.70;99.90;;;;;;5127669;27;20195;-52
2021/12/14 03:53:26;;;;;;;2.20;1.90;;;4.70;99.90;;;;;;5126786;27;20227;-57
2021/12/14 03:56:11;;;;;;;2.97;1.87;;;4.60;99.90;;;;;;5127557;27;20209;-54
2021/12/14 03:58:56;;;;;;;1.30;1.03;;;4.70;99.90;;;;;;5127213;27;20277;-61
2021/12/14 04:01:43;;;;;;;3.93;2.47;;;4.60;99.90;;;;;;5127436;27;20191;-54
2021/12/14 04:05:02;;;;;;;1.37;1.27;;;4.60;99.90;;;;;;5128074;27;20276;-57
2021/12/14 04:07:48;;;;;;;3.47;1.90;;;4.70;99.90;;;;;;5126837;27;20253;-55
2021/12/14 04:10:35;;;;;;;2.80;2.53;;;4.70;99.90;;;;;;5126580;27;20256;-52
2021/12/14 04:13:24;;;;;;;1.90;1.77;;;4.60;99.90;;;;;;5128132;27;20188;-56
2021/12/14 04:16:12;;;;;;;3.13;2.47;;;4.60;99.90;;;;;;5126631;27;20268;-58
2021/12/14 04:19:03;;;;;;;2.33;2.10;;;4.60;99.90;;;;;;5126126;27;20254;-56
2021/12/14 04:21:50;;;;;;;3.53;2.17;;;4.70;99.90;;;;;;5128102;27;20325;-58
2021/12/14 04:24:38;;;;;;;2.67;2.23;;;4.60;99.90;;;;;;5126478;27;20247;-60
2021/12/14 04:27:27;;;;;;;3.30;3.03;;;4.60;99.90;;;;;;5126304;27;20187;-61
2021/12/14 04:30:17;;;;;;;5.90;3.20;;;4.70;99.90;;;;;;5128526;27;20233;-60
2021/12/14 04:33:06;;;;;;;3.53;3.07;;;4.70;99.90;;;;;;5126219;27;20237;-54
2021/12/14 04:35:50;;;;;;;3.13;1.80;;;4.60;99.90;;;;;;5126883;27;20188;-58
2021/12/14 04:38:49;;;;;;;2.70;2.23;;;4.60;99.90;;;;;;5126738;27;20227;-55
2021/12/14 04:53:55;;;;;;;3.90;2.53;;;4.50;99.90;;;;;;5127035;27;20194;-59
2021/12/14 04:56:47;;;;;;;3.10;2.03;;;4.50;99.90;;;;;;5128753;27;20191;-58
2021/12/14 04:59:34;;;;;;;3.20;2.97;;;4.60;99.90;;;;;;5135718;27;20268;-58
2021/12/14 05:02:29;;;;;;;1.93;1.80;;;4.60;99.90;;;;;;5131604;27;20209;-63
2021/12/14 05:05:30;;;;;;;2.37;1.57;;;4.50;99.90;;;;;;5134358;27;20180;-62
2021/12/14 05:11:08;;;;;;;4.07;2.00;;;4.60;99.90;;;;;;5134928;27;20216;-56
2021/12/14 05:14:00;;;;;;;4.60;2.73;;;4.60;99.90;;;;;;5131738;27;20199;-59
2021/12/14 05:16:45;;;;;;;2.17;1.90;;;4.60;99.90;;;;;;5136754;27;20215;-60
2021/12/14 05:19:33;;;;;;;3.07;2.37;;;4.50;99.90;;;;;;5132723;27;20253;-54
2021/12/14 05:22:20;;;;;;;2.77;2.03;;;4.50;99.90;;;;;;5132289;27;20242;-56
2021/12/14 05:25:10;;;;;;;2.93;1.73;;;4.50;99.90;;;;;;5136288;27;20333;-58
2021/12/14 05:27:57;;;;;;;2.60;1.83;;;4.60;99.90;;;;;;5130937;27;20206;-59
2021/12/14 05:30:45;;;;;;;3.37;2.57;;;4.50;99.90;;;;;;5127159;27;20237;-61
2021/12/14 05:33:33;;;;;;;3.00;2.10;;;4.60;99.90;;;;;;5129541;27;20253;-57
2021/12/14 05:36:22;;;;;;;6.73;3.00;;;4.50;99.90;;;;;;5134124;27;20195;-58
2021/12/14 05:44:56;;;;;;;2.17;1.97;;;4.50;99.90;;;;;;5136920;27;20183;-55
2021/12/14 05:47:49;;;;;;;2.10;1.63;;;4.50;99.90;;;;;;5131952;27;20187;-60
2021/12/14 05:50:41;;;;;;;2.03;1.77;;;4.50;99.90;;;;;;5134647;27;20227;-60
2021/12/14 05:53:37;;;;;;;3.07;1.80;;;4.50;99.90;;;;;;5134351;27;20238;-55
2021/12/14 05:56:24;;;;;;;2.80;2.07;;;4.50;99.90;;;;;;5131562;27;20188;-56
2021/12/14 05:59:08;;;;;;;1.80;1.70;;;4.50;99.90;;;;;;5133139;27;20206;-60
2021/12/14 06:01:54;;;;;;;6.10;2.50;;;4.50;99.90;;;;;;5133269;27;20183;-57
2021/12/14 06:04:46;;;;;;;3.33;2.07;;;4.50;99.90;;;;;;5130571;27;20223;-57
2021/12/14 06:07:31;;;;;;;2.23;2.03;;;4.40;99.90;;;;;;5133131;27;20190;-53
2021/12/14 06:10:19;;;;;;;3.70;2.10;;;4.50;99.90;;;;;;5132897;27;20337;-54
2021/12/14 06:13:04;;;;;;;5.33;3.33;;;4.50;99.90;;;;;;5134811;27;20190;-54
2021/12/14 06:15:50;;;;;;;2.57;2.03;;;4.40;99.90;;;;;;5130793;27;20277;-55
2021/12/14 06:18:34;;;;;;;2.83;1.40;;;4.40;99.90;;;;;;5121344;27;20261;-53
2021/12/14 06:21:31;;;;;;;3.67;2.10;;;4.40;99.90;;;;;;5118610;27;20199;-58
2021/12/14 06:24:17;;;;;;;2.57;2.03;;;4.40;99.90;;;;;;5127672;27;20183;-56
2021/12/14 06:27:04;;;;;;;2.93;1.73;;;4.40;99.90;;;;;;5124809;27;20198;-59
2021/12/14 06:29:55;;;;;;;2.00;1.90;;;4.40;99.90;;;;;;5118224;27;20292;-57
2021/12/14 06:32:44;;;;;;;2.03;1.33;;;4.50;99.90;;;;;;5122687;27;20219;-54
2021/12/14 06:35:35;;;;;;;2.50;2.00;;;4.50;99.90;;;;;;5128253;27;20195;-57
2021/12/14 06:38:29;;;;;;;4.07;1.67;;;4.50;99.90;;;;;;5117137;27;20300;-58
2021/12/14 06:41:16;;;;;;;1.27;1.10;;;4.50;99.90;;;;;;5120643;27;20203;-53
2021/12/14 06:44:02;;;;;;;2.60;1.13;;;4.40;99.90;;;;;;5114977;27;20243;-54
2021/12/14 06:46:46;;;;;;;1.93;1.50;;;4.40;99.90;;;;;;5149548;27;20196;-59
2021/12/14 06:49:31;;;;;;;1.57;1.20;;;4.40;99.90;;;;;;5121155;27;20180;-56
2021/12/14 06:52:17;;;;;;;2.97;2.30;;;4.40;99.90;;;;;;5126817;27;20310;-62
2021/12/14 06:55:04;;;;;;;4.63;2.50;;;4.40;99.90;;;;;;5115146;27;20207;-58
2021/12/14 06:57:49;;;;;;;2.60;1.73;;;4.40;99.90;;;;;;5131150;27;20311;-55
2021/12/14 07:00:35;;;;;;;3.03;1.60;;;4.40;99.90;;;;;;5109046;27;20195;-62
2021/12/14 07:03:19;;;;;;;2.40;1.20;;;4.30;99.90;;;;;;5115429;27;20240;-52
2021/12/14 07:06:05;;;;;;;3.87;1.43;;;4.40;99.90;;;;;;5120635;27;20264;-58
2021/12/14 07:08:50;;;;;;;3.90;1.67;;;4.50;99.90;;;;;;5137974;27;20191;-54
2021/12/14 07:11:37;;;;;;;1.63;1.53;;;4.50;99.90;;;;;;5121969;27;20205;-56
2021/12/14 07:14:31;;;;;;;3.70;1.43;;;4.50;99.90;;;;;;5109456;27;20199;-56
2021/12/14 07:17:19;;;;;;;4.47;2.83;;;4.50;99.90;;;;;;5111152;27;20354;-58
2021/12/14 07:20:21;;;;;;;3.10;2.07;;;4.60;99.90;;;;;;5120593;27;20199;-53
2021/12/14 07:23:32;;;;;;;2.70;1.57;;;4.50;99.90;;;;;;5119945;27;20218;-55
2021/12/14 07:26:18;;;;;;;2.73;2.20;;;4.50;99.90;;;;;;5151610;27;20248;-60
2021/12/14 07:29:03;;;;;;;6.80;2.83;;;4.50;99.90;;;;;;5129734;27;20261;-54
2021/12/14 07:31:47;;;;;;;3.70;1.73;;;4.40;99.90;;;;;;5122784;27;20195;-55
2021/12/14 07:34:32;;;;;;;2.87;2.60;;;4.30;99.90;;;;;;5106606;27;20211;-55
2021/12/14 07:37:31;;;;;;;1.70;1.50;;;4.30;99.90;;;;;;5113609;27;20214;-58
2021/12/14 07:40:17;;;;;;;4.47;1.90;;;4.40;99.90;;;;;;5119938;27;20213;-55
2021/12/14 07:43:12;;;;;;;5.53;2.83;;;4.40;99.90;;;;;;5120899;27;20195;-59
2021/12/14 07:45:58;;;;;;;3.30;1.83;;;4.40;99.90;;;;;;5115371;27;20294;-55
2021/12/14 07:48:51;;;;;;;2.80;1.83;;;4.30;99.90;;;;;;5115938;27;20261;-53
2021/12/14 07:51:39;;;;;;;2.83;1.93;;;4.20;99.90;;;;;;5117859;27;20255;-52
2021/12/14 07:54:30;;;;;;;2.10;1.50;;;4.40;99.90;;;;;;5122153;27;20261;-55
2021/12/14 07:57:23;;;;;;;2.20;1.40;;;4.30;99.90;;;;;;5120422;27;20288;-59
2021/12/14 08:00:25;;;;;;;3.53;1.77;;;4.30;99.90;;;;;;5111595;27;20309;-59
2021/12/14 08:03:10;;;;;;;3.57;1.63;;;4.40;99.90;;;;;;5126110;27;20189;-58
2021/12/14 08:05:54;;;;;;;3.50;2.13;;;4.30;99.90;;;;;;5113940;27;20253;-54
2021/12/14 08:14:23;;;;;;;2.27;1.80;;;4.50;99.90;;;;;;5132855;27;20195;-54
2021/12/14 08:17:09;;;;;;;3.30;2.77;;;4.50;99.90;;;;;;5110413;27;20342;-57
2021/12/14 08:19:54;;;;;;;9.97;6.57;;;4.50;99.90;;;;;;5120548;27;20233;-57
2021/12/14 08:22:40;;;;;;;2.57;1.83;;;4.60;99.90;;;;;;5129854;27;20219;-57
2021/12/14 08:25:29;;;;;;;3.30;1.97;;;4.50;99.90;;;;;;5114641;27;20198;-59
2021/12/14 08:28:14;;;;;;;3.50;1.93;;;4.50;99.90;;;;;;5121089;27;20204;-54
2021/12/14 08:31:03;;;;;;;2.43;1.90;;;4.30;99.90;;;;;;5122222;27;20203;-56
2021/12/14 08:34:19;;;;;;;1.60;1.50;;;4.30;99.90;;;;;;5132373;27;20187;-58
2021/12/14 08:37:18;;;;;;;1.70;1.60;;;4.50;99.90;;;;;;5127189;27;20206;-52
2021/12/14 08:40:11;;;;;;;1.47;1.37;;;4.50;99.90;;;;;;5118971;27;20188;-56
2021/12/14 08:43:11;;;;;;;0.50;0.50;;;4.60;99.90;;;;;;5116782;27;20187;-57
2021/12/14 08:46:07;;;;;;;1.43;1.17;;;4.50;99.90;;;;;;5118968;27;20296;-56
2021/12/14 08:49:02;;;;;;;3.03;1.23;;;4.60;99.90;;;;;;5122724;27;20223;-51
2021/12/14 08:51:49;;;;;;;1.47;1.30;;;4.70;99.90;;;;;;5138108;27;20234;-57
2021/12/14 08:54:37;;;;;;;0.93;0.93;;;4.70;99.90;;;;;;5124355;27;20194;-56
2021/12/14 08:57:28;;;;;;;1.77;1.67;;;4.80;99.90;;;;;;5121800;27;20219;-53
2021/12/14 09:00:26;;;;;;;2.53;1.70;;;4.70;99.90;;;;;;5123393;27;20186;-54
2021/12/14 09:03:16;;;;;;;1.37;1.03;;;4.80;99.90;;;;;;5132834;27;20249;-52
2021/12/14 09:06:06;;;;;;;2.27;1.50;;;4.80;99.90;;;;;;5136314;27;20183;-60
2021/12/14 09:08:51;;;;;;;2.63;2.03;;;4.80;99.90;;;;;;5117152;27;20215;-56
2021/12/14 09:11:39;;;;;;;1.93;1.83;;;4.80;99.90;;;;;;5131038;27;20203;-55
2021/12/14 09:14:23;;;;;;;3.20;1.73;;;4.80;99.90;;;;;;5126295;27;20194;-56
2021/12/14 09:17:10;;;;;;;2.63;1.83;;;4.80;99.90;;;;;;5122562;27;20291;-53
2021/12/14 09:20:20;;;;;;;1.03;0.93;;;4.80;99.90;;;;;;5120245;27;20200;-54
2021/12/14 09:23:12;;;;;;;5.00;4.50;;;4.90;99.90;;;;;;5155269;27;20191;-55
2021/12/14 09:25:58;;;;;;;5.73;3.47;;;4.90;99.90;;;;;;5150130;27;20203;-54
2021/12/14 09:28:43;;;;;;;2.73;2.13;;;4.80;99.90;;;;;;5114262;27;20196;-50
2021/12/14 09:31:32;;;;;;;3.57;1.70;;;4.80;99.90;;;;;;5124009;27;20248;-52
2021/12/14 09:34:20;;;;;;;2.77;1.73;;;4.80;99.90;;;;;;5126388;27;20191;-55
2021/12/14 09:37:08;;;;;;;3.13;2.33;;;4.70;99.90;;;;;;5129901;27;20188;-51
2021/12/14 09:39:56;;;;;;;4.57;2.90;;;4.60;99.90;;;;;;5116581;27;20202;-54
2021/12/14 09:42:43;;;;;;;2.83;2.37;;;4.60;99.90;;;;;;5124434;27;20272;-50
2021/12/14 09:45:39;;;;;;;5.20;2.33;;;4.40;99.90;;;;;;5124713;27;20184;-49
2021/12/14 09:48:27;;;;;;;2.07;1.87;;;4.30;99.90;;;;;;5146825;27;20199;-50
2021/12/14 09:51:20;;;;;;;2.53;1.97;;;4.10;99.90;;;;;;5126611;27;21318;-53
2021/12/14 09:54:07;;;;;;;3.80;1.57;;;4.10;99.90;;;;;;5119911;27;20292;-52
2021/12/14 09:56:57;;;;;;;4.60;2.67;;;4.10;99.90;;;;;;5145063;27;20248;-52
2021/12/14 09:59:42;;;;;;;2.63;1.87;;;4.20;99.90;;;;;;5121631;27;20267;-56
2021/12/14 10:02:37;;;;;;;3.93;2.93;;;4.30;99.90;;;;;;5128871;27;20219;-53
2021/12/14 10:05:33;;;;;;;4.73;2.03;;;4.30;99.90;;;;;;5129486;27;20276;-54
2021/12/14 10:08:22;;;;;;;6.47;2.20;;;4.20;99.90;;;;;;5120807;27;20262;-52
2021/12/14 10:11:24;;;;;;;6.53;2.87;;;4.00;99.90;;;;;;5125061;27;20214;-52
2021/12/14 10:14:11;;;;;;;2.97;1.63;;;4.00;99.90;;;;;;5122805;27;20237;-54
2021/12/14 10:16:55;;;;;;;2.43;2.03;;;4.10;99.90;;;;;;5117686;27;20190;-52
2021/12/14 10:19:45;;;;;;;3.20;2.57;;;4.30;99.90;;;;;;5117474;27;20236;-50
2021/12/14 10:22:31;;;;;;;1.87;1.53;;;4.10;99.90;;;;;;5126355;27;20257;-54
2021/12/14 10:25:18;;;;;;;1.77;1.67;;;4.10;99.90;;;;;;5131006;27;20195;-54
2021/12/14 10:28:05;;;;;;;3.27;2.17;;;4.20;99.90;;;;;;5120893;27;20203;-54
2021/12/14 10:31:01;;;;;;;2.97;1.90;;;4.40;99.90;;;;;;5128429;27;20194;-54
2021/12/14 10:33:46;;;;;;;2.07;1.13;;;4.40;99.90;;;;;;5127184;27;20186;-55
2021/12/14 10:36:37;;;;;;;2.83;1.87;;;4.60;99.90;;;;;;5123499;27;20253;-52
2021/12/14 10:39:38;;;;;;;1.30;1.30;;;4.60;99.90;;;;;;5113332;27;20206;-52
2021/12/14 10:42:51;;;;;;;2.73;1.90;;;4.40;99.90;;;;;;5132565;27;20225;-52
2021/12/14 10:45:36;;;;;;;4.40;2.33;;;4.40;99.90;;;;;;5124485;27;20264;-54
2021/12/14 10:48:24;;;;;;;3.13;1.60;;;4.30;99.90;;;;;;5115486;27;20276;-51
2021/12/14 10:51:11;;;;;;;2.90;2.13;;;4.30;99.90;;;;;;5122050;27;20196;-52
2021/12/14 10:53:59;;;;;;;3.07;2.00;;;4.20;99.90;;;;;;5122959;27;20269;-47
2021/12/14 10:56:48;;;;;;;3.43;2.73;;;4.20;99.90;;;;;;5125616;27;20240;-51
2021/12/14 10:59:36;;;;;;;4.57;2.13;;;4.00;99.90;;;;;;5126851;27;20252;-56
2021/12/14 11:02:24;;;;;;;2.37;1.53;;;4.00;99.90;;;;;;5127812;27;20199;-54
2021/12/14 11:05:16;;;;;;;2.03;1.73;;;4.10;99.90;;;;;;5134553;27;20194;-57
2021/12/14 11:08:19;;;;;;;2.07;1.63;;;4.10;99.90;;;;;;5126122;27;20236;-51
2021/12/14 11:11:09;;;;;;;4.60;1.70;;;4.10;99.90;;;;;;5128824;27;20286;-54
2021/12/14 11:13:56;;;;;;;3.40;2.00;;;4.10;99.90;;;;;;5104570;27;20200;-55
2021/12/14 11:20:04;;;;;;;3.17;1.67;;;4.20;99.90;;;;;;5104571;28;20265;-54
2021/12/14 11:22:59;;;;;;;3.43;1.60;;;4.40;99.90;;;;;;5119785;28;20203;-49
2021/12/14 11:26:08;;;;;;;4.10;1.97;;;4.50;99.90;;;;;;5122509;28;20227;-53
2021/12/14 11:29:24;;;;;;;2.67;1.27;;;4.60;99.90;;;;;;5121871;28;20250;-53
2021/12/14 11:32:16;;;;;;;2.60;1.57;;;4.60;99.90;;;;;;5086915;28;20298;-52
2021/12/14 11:35:13;;;;;;;0.63;0.63;;;4.70;99.90;;;;;;5087880;28;20235;-53
2021/12/14 11:38:02;;;;;;;1.00;0.90;;;4.70;99.90;;;;;;5087027;28;20224;-48
2021/12/14 11:40:46;;;;;;;1.30;1.20;;;4.70;99.90;;;;;;5087014;28;20239;-52
2021/12/14 11:43:31;;;;;;;4.80;1.30;;;4.70;99.90;;;;;;5092462;28;20339;-46
2021/12/14 11:46:15;;;;;;;0.93;0.93;;;4.60;99.90;;;;;;5091123;28;20244;-45
2021/12/14 11:49:04;;;;;;;1.73;1.63;;;4.70;99.90;;;;;;5090717;28;20204;-52
2021/12/14 11:51:49;;;;;;;2.13;1.03;;;4.70;99.90;;;;;;5090896;28;20253;-55
2021/12/14 11:54:43;;;;;;;2.50;1.67;;;4.70;99.90;;;;;;5091391;28;20215;-53
2021/12/14 11:57:32;;;;;;;1.37;1.00;;;4.70;99.90;;;;;;5090771;28;20283;-51
2021/12/14 12:00:22;;;;;;;2.00;1.33;;;4.70;99.90;;;;;;5090880;28;20238;-53
2021/12/14 12:03:28;;;;;;;1.17;0.97;;;4.70;99.90;;;;;;5090484;28;20191;-49
2021/12/14 12:09:46;;;;;;;1.30;1.20;;;4.60;99.90;;;;;;5108456;27;20203;-50
2021/12/14 12:12:34;;;;;;;0.70;0.70;;;4.70;99.90;;;;;;5127143;27;20195;-55
2021/12/14 12:15:23;;;;;;;0.77;0.77;;;4.70;99.90;;;;;;5126470;27;20191;-53
2021/12/14 12:18:08;;;;;;;0.87;0.87;;;4.70;99.90;;;;;;5128433;27;20348;-57
2021/12/14 12:20:53;;;;;;;0.73;0.73;;;4.90;99.90;;;;;;5126519;27;20199;-53
2021/12/14 12:23:37;;;;;;;0.53;0.53;;;4.90;99.90;;;;;;5126824;27;20186;-54
2021/12/14 12:26:25;;;;;;;0.67;0.53;;;5.00;99.90;;;;;;5127588;27;20284;-49
2021/12/14 12:29:16;;;;;;;0.63;0.60;;;5.00;99.90;;;;;;5126647;27;20203;-48
2021/12/14 12:32:08;;;;;;;0.67;0.67;;;4.80;99.90;;;;;;5126721;27;20233;-57
2021/12/14 12:34:53;;;;;;;0.83;0.70;;;4.70;99.90;;;;;;5126883;27;20191;-57
2021/12/14 12:37:42;;;;;;;0.63;0.63;;;4.80;99.90;;;;;;5126121;27;20227;-53
2021/12/14 12:40:39;;;;;;;1.17;1.17;;;4.80;99.90;;;;;;5128025;27;20282;-50
2021/12/14 12:43:34;;;;;;;1.17;0.63;;;5.00;99.90;;;;;;5126975;27;20210;-53
2021/12/14 12:46:34;;;;;;;1.33;1.23;;;5.00;99.90;;;;;;5126562;27;20199;-52
2021/12/14 12:49:29;;;;;;;0.73;0.73;;;4.90;99.90;;;;;;5127244;27;20200;-53
2021/12/14 12:52:26;;;;;;;0.77;0.43;;;4.90;99.90;;;;;;5126026;27;20235;-53
2021/12/14 12:55:17;;;;;;;0.60;0.60;;;5.10;99.90;;;;;;5126544;27;20191;-56
2021/12/14 12:58:12;;;;;;;0.80;0.80;;;5.00;99.90;;;;;;5126717;27;20227;-50
2021/12/14 13:00:59;;;;;;;0.60;0.60;;;4.90;99.90;;;;;;5126882;27;20196;-56
2021/12/14 13:03:44;;;;;;;1.33;1.00;;;5.10;99.90;;;;;;5125927;27;20199;-50
2021/12/14 13:06:29;;;;;;;0.67;0.50;;;5.20;99.90;;;;;;5126290;27;20195;-51
2021/12/14 13:09:13;;;;;;;0.80;0.77;;;5.30;99.90;;;;;;5125265;27;20215;-45
2021/12/14 13:11:58;;;;;;;0.73;0.60;;;5.20;99.90;;;;;;5125584;27;20253;-57
2021/12/14 13:14:43;;;;;;;1.27;1.20;;;5.20;99.90;;;;;;5126982;27;20329;-58
2021/12/14 13:17:27;;;;;;;1.23;0.60;;;5.10;99.90;;;;;;5125524;27;20257;-55
2021/12/14 13:20:11;;;;;;;0.63;0.63;;;5.00;99.90;;;;;;5124789;27;20204;-55
2021/12/14 13:22:56;;;;;;;0.60;0.60;;;4.90;99.90;;;;;;5126384;27;20190;-56
2021/12/14 13:25:43;;;;;;;1.20;0.83;;;5.00;99.90;;;;;;5125413;27;20249;-59
2021/12/14 13:28:37;;;;;;;0.77;0.77;;;4.90;99.90;;;;;;5125461;27;20191;-52
2021/12/14 13:31:46;;;;;;;0.50;0.50;;;4.90;99.90;;;;;;5126328;27;20219;-48
2021/12/14 13:34:36;;;;;;;0.80;0.80;;;4.90;99.90;;;;;;5111963;27;20199;-51
2021/12/14 13:37:45;;;;;;;0.60;0.60;;;4.80;99.90;;;;;;5125445;27;20258;-52
2021/12/14 13:40:45;;;;;;;0.60;0.50;;;4.80;99.90;;;;;;5125996;27;20194;-59
2021/12/14 13:43:39;;;;;;;1.03;0.97;;;4.70;99.90;;;;;;5125443;27;20284;-52
2021/12/14 13:46:23;;;;;;;0.80;0.80;;;4.70;99.90;;;;;;5124721;27;20191;-57
2021/12/14 13:49:08;;;;;;;1.27;1.27;;;4.70;99.90;;;;;;5125753;27;20244;-60
2021/12/14 13:51:54;;;;;;;0.60;0.60;;;4.40;99.90;;;;;;5124211;27;20284;-55
2021/12/14 13:55:07;;;;;;;0.63;0.63;;;4.40;99.90;;;;;;5125008;27;20203;-58
2021/12/14 13:57:56;;;;;;;0.70;0.60;;;4.50;99.90;;;;;;5125903;27;20231;-56
2021/12/14 14:00:51;;;;;;;0.83;0.80;;;4.50;99.90;;;;;;5124866;27;20206;-51
2021/12/14 14:03:41;;;;;;;0.83;0.83;;;4.50;99.90;;;;;;5123741;27;20197;-46
2021/12/14 14:06:29;;;;;;;0.70;0.70;;;4.50;99.90;;;;;;5126636;27;20192;-49
2021/12/14 14:09:19;;;;;;;0.80;0.60;;;4.60;99.90;;;;;;5124664;27;20326;-55
2021/12/14 14:12:16;;;;;;;0.90;0.90;;;4.60;99.90;;;;;;5124162;27;20180;-54
2021/12/14 14:15:00;;;;;;;1.03;1.03;;;4.60;99.90;;;;;;5125816;27;20245;-58
2021/12/14 14:17:50;;;;;;;1.00;0.57;;;4.60;99.90;;;;;;5124289;27;20219;-56
2021/12/14 14:20:38;;;;;;;3.23;0.97;;;4.70;99.90;;;;;;5124235;27;20203;-54
2021/12/14 14:23:33;;;;;;;1.47;0.90;;;4.70;99.90;;;;;;5125315;27;20199;-59
2021/12/14 14:26:19;;;;;;;1.23;1.13;;;4.80;99.90;;;;;;5124389;27;20207;-53
2021/12/14 14:29:13;;;;;;;1.23;0.70;;;4.80;99.90;;;;;;5124202;27;20249;-53
2021/12/14 14:32:11;;;;;;;1.70;1.00;;;4.80;99.90;;;;;;5125213;27;20231;-56
2021/12/14 14:35:00;;;;;;;0.63;0.63;;;4.80;99.90;;;;;;5124230;27;20191;-47
2021/12/14 14:37:44;;;;;;;0.80;0.80;;;4.80;99.90;;;;;;5124009;27;20348;-50
2021/12/14 14:40:35;;;;;;;1.17;0.90;;;4.90;99.90;;;;;;5124545;27;20604;-55
2021/12/14 14:43:19;;;;;;;0.53;0.50;;;4.70;99.90;;;;;;5123068;27;20276;-56
2021/12/14 14:46:04;;;;;;;1.17;0.83;;;4.80;99.90;;;;;;5124257;27;20255;-57
2021/12/14 14:48:52;;;;;;;1.33;1.20;;;4.80;99.90;;;;;;5123651;27;20199;-51
2021/12/14 14:51:45;;;;;;;1.47;1.37;;;4.80;99.90;;;;;;5123190;27;20219;-51
2021/12/14 14:54:35;;;;;;;1.93;1.40;;;4.70;99.90;;;;;;5124298;27;20200;-51
2021/12/14 14:57:19;;;;;;;1.10;1.00;;;4.70;99.90;;;;;;5123752;27;20287;-53
2021/12/14 15:00:07;;;;;;;1.47;0.93;;;4.70;99.90;;;;;;5122739;27;20187;-54
2021/12/14 15:02:55;;;;;;;1.03;1.00;;;4.70;99.90;;;;;;5124661;28;20264;-55
2021/12/14 15:06:19;;;;;;;1.43;1.33;;;4.80;99.90;;;;;;5123217;28;20200;-54
2021/12/14 15:09:18;;;;;;;0.93;0.93;;;4.70;99.90;;;;;;5123773;28;20196;-57
2021/12/14 15:12:05;;;;;;;2.63;1.83;;;4.70;99.90;;;;;;5124641;28;20267;-52
2021/12/14 15:14:49;;;;;;;2.27;1.70;;;4.70;99.90;;;;;;5123268;27;20203;-56
2021/12/14 15:17:44;;;;;;;2.40;1.40;;;4.60;99.90;;;;;;5127457;27;20271;-58
2021/12/14 15:20:33;;;;;;;1.60;1.50;;;4.60;99.90;;;;;;5129162;27;20785;-56
2021/12/14 15:23:23;;;;;;;1.90;1.80;;;4.60;99.90;;;;;;5127559;27;20187;-55
2021/12/14 15:26:13;;;;;;;1.50;1.27;;;4.60;99.90;;;;;;5127748;27;20191;-56
2021/12/14 15:29:29;;;;;;;1.73;1.47;;;4.60;99.90;;;;;;5128760;27;20256;-56
2021/12/14 15:32:16;;;;;;;2.50;1.50;;;4.60;99.90;;;;;;5127812;27;20196;-52
2021/12/14 15:35:12;;;;;;;2.00;1.00;;;4.70;99.90;;;;;;5127676;27;20329;-57
2021/12/14 15:38:05;;;;;;;1.43;1.33;;;4.60;99.90;;;;;;5128207;27;20234;-49
2021/12/14 15:41:01;;;;;;;1.40;1.30;;;4.50;99.90;;;;;;5127457;27;20203;-55
2021/12/14 15:43:50;;;;;;;1.60;1.30;;;4.40;99.90;;;;;;5127210;27;20316;-47